sensor_id;sensor_type;location;lat;lon;timestamp;pressure;altitude;pressure_sealevel;temperature;humidity
35519;BME280;21627;48.216;16.482;2022-08-25T00:02:17;99957.25;;;21.01;100.00
35519;BME280;21627;48.216;16.482;2022-08-25T00:04:47;99953.78;;;21.00;100.00
35519;BME280;21627;48.216;16.482;2022-08-25T00:07:20;99953.81;;;20.99;100.00
35519;BME280;21627;48.216;16.482;2022-08-25T00:09:50;99957.38;;;20.98;100.00
35519;BME280;21627;48.216;16.482;2022-08-25T00:12:21;99947.97;;;20.92;100.00
35519;BME280;21627;48.216;16.482;2022-08-25T00:14:48;99948.81;;;20.92;100.00
35519;BME280;21627;48.216;16.482;2022-08-25T00:17:16;99947.09;;;20.91;100.00
35519;BME280;21627;48.216;16.482;2022-08-25T00:19:46;99947.22;;;20.88;100.00
35519;BME280;21627;48.216;16.482;2022-08-25T00:22:13;99937.69;;;20.86;100.00
35519;BME280;21627;48.216;16.482;2022-08-25T00:24:40;99950.78;;;20.87;100.00
35519;BME280;21627;48.216;16.482;2022-08-25T00:27:07;99955.19;;;20.87;100.00
35519;BME280;21627;48.216;16.482;2022-08-25T00:29:38;99946.69;;;20.80;100.00
35519;BME280;21627;48.216;16.482;2022-08-25T00:32:12;99950.03;;;20.84;100.00
35519;BME280;21627;48.216;16.482;2022-08-25T00:34:39;99950.09;;;20.82;100.00
35519;BME280;21627;48.216;16.482;2022-08-25T00:37:07;99950.09;;;20.82;100.00
35519;BME280;21627;48.216;16.482;2022-08-25T00:39:38;99946.63;;;20.82;100.00
35519;BME280;21627;48.216;16.482;2022-08-25T00:42:07;99940.69;;;20.77;100.00
35519;BME280;21627;48.216;16.482;2022-08-25T00:44:42;99941.75;;;20.71;100.00
35519;BME280;21627;48.216;16.482;2022-08-25T00:47:10;99944.38;;;20.71;100.00
35519;BME280;21627;48.216;16.482;2022-08-25T00:49:47;99943.41;;;20.73;100.00
35519;BME280;21627;48.216;16.482;2022-08-25T00:52:21;99933.97;;;20.69;100.00
35519;BME280;21627;48.216;16.482;2022-08-25T00:57:39;99939.94;;;20.73;100.00
35519;BME280;21627;48.216;16.482;2022-08-25T01:00:21;99935.63;;;20.72;100.00
35519;BME280;21627;48.216;16.482;2022-08-25T01:02:48;99918.41;;;20.63;100.00
35519;BME280;21627;48.216;16.482;2022-08-25T01:05:17;99923.66;;;20.63;100.00
35519;BME280;21627;48.216;16.482;2022-08-25T01:07:45;99923.63;;;20.65;100.00
35519;BME280;21627;48.216;16.482;2022-08-25T01:10:13;99930.53;;;20.67;100.00
35519;BME280;21627;48.216;16.482;2022-08-25T01:12:40;99930.53;;;20.67;100.00
35519;BME280;21627;48.216;16.482;2022-08-25T01:15:11;99916.75;;;20.61;100.00
35519;BME280;21627;48.216;16.482;2022-08-25T01:17:50;99918.41;;;20.63;100.00
35519;BME280;21627;48.216;16.482;2022-08-25T01:20:25;99913.16;;;20.63;100.00
35519;BME280;21627;48.216;16.482;2022-08-25T01:22:56;99919.34;;;20.62;100.00
35519;BME280;21627;48.216;16.482;2022-08-25T01:25:48;99920.19;;;20.63;100.00
35519;BME280;21627;48.216;16.482;2022-08-25T01:28:20;99912.34;;;20.61;100.00
35519;BME280;21627;48.216;16.482;2022-08-25T01:30:48;99906.44;;;20.56;100.00
35519;BME280;21627;48.216;16.482;2022-08-25T01:33:16;99912.44;;;20.60;100.00
35519;BME280;21627;48.216;16.482;2022-08-25T01:35:44;99919.47;;;20.59;100.00
35519;BME280;21627;48.216;16.482;2022-08-25T01:38:11;99903.88;;;20.55;100.00
35519;BME280;21627;48.216;16.482;2022-08-25T01:40:40;99905.66;;;20.52;100.00
35519;BME280;21627;48.216;16.482;2022-08-25T01:43:34;99898.72;;;20.51;100.00
35519;BME280;21627;48.216;16.482;2022-08-25T01:46:02;99902.13;;;20.53;100.00
35519;BME280;21627;48.216;16.482;2022-08-25T01:48:30;99904.69;;;20.57;100.00
35519;BME280;21627;48.216;16.482;2022-08-25T01:50:58;99905.56;;;20.56;100.00
35519;BME280;21627;48.216;16.482;2022-08-25T01:53:29;99907.34;;;20.55;100.00
35519;BME280;21627;48.216;16.482;2022-08-25T01:56:10;99909.16;;;20.53;100.00
35519;BME280;21627;48.216;16.482;2022-08-25T01:58:42;99911.84;;;20.51;100.00
35519;BME280;21627;48.216;16.482;2022-08-25T02:01:18;99917.16;;;20.50;100.00
35519;BME280;21627;48.216;16.482;2022-08-25T02:03:49;99908.53;;;20.46;100.00
35519;BME280;21627;48.216;16.482;2022-08-25T02:06:24;99918.94;;;20.49;100.00
35519;BME280;21627;48.216;16.482;2022-08-25T02:09:00;99907.56;;;20.49;100.00
35519;BME280;21627;48.216;16.482;2022-08-25T02:11:32;99910.19;;;20.49;100.00
35519;BME280;21627;48.216;16.482;2022-08-25T02:14:01;99908.47;;;20.48;100.00
35519;BME280;21627;48.216;16.482;2022-08-25T02:16:34;99905.03;;;20.46;100.00
35519;BME280;21627;48.216;16.482;2022-08-25T02:19:07;99897.41;;;20.40;100.00
35519;BME280;21627;48.216;16.482;2022-08-25T02:21:35;99910.28;;;20.46;100.00
35519;BME280;21627;48.216;16.482;2022-08-25T02:24:03;99902.63;;;20.41;100.00
35519;BME280;21627;48.216;16.482;2022-08-25T02:26:30;99908.59;;;20.45;100.00
35519;BME280;21627;48.216;16.482;2022-08-25T02:28:58;99913.00;;;20.44;100.00
35519;BME280;21627;48.216;16.482;2022-08-25T02:31:30;99912.16;;;20.44;100.00
35519;BME280;21627;48.216;16.482;2022-08-25T02:33:58;99908.63;;;20.43;100.00
35519;BME280;21627;48.216;16.482;2022-08-25T02:36:25;99907.75;;;20.44;100.00
35519;BME280;21627;48.216;16.482;2022-08-25T02:38:52;99898.44;;;20.36;100.00
35519;BME280;21627;48.216;16.482;2022-08-25T02:41:24;99896.69;;;20.36;100.00
35519;BME280;21627;48.216;16.482;2022-08-25T02:44:03;99905.25;;;20.41;100.00
35519;BME280;21627;48.216;16.482;2022-08-25T02:46:31;99895.81;;;20.36;100.00
35519;BME280;21627;48.216;16.482;2022-08-25T02:48:58;99907.78;;;20.43;100.00
35519;BME280;21627;48.216;16.482;2022-08-25T02:51:27;99904.31;;;20.42;100.00
35519;BME280;21627;48.216;16.482;2022-08-25T02:53:58;99906.94;;;20.42;100.00
35519;BME280;21627;48.216;16.482;2022-08-25T02:56:30;99889.78;;;20.34;100.00
35519;BME280;21627;48.216;16.482;2022-08-25T02:58:59;99900.97;;;20.39;100.00
35519;BME280;21627;48.216;16.482;2022-08-25T03:01:27;99897.41;;;20.40;100.00
35519;BME280;21627;48.216;16.482;2022-08-25T03:03:56;99900.97;;;20.39;100.00
35519;BME280;21627;48.216;16.482;2022-08-25T03:06:26;99897.53;;;20.37;100.00
35519;BME280;21627;48.216;16.482;2022-08-25T03:08:54;99896.69;;;20.36;100.00
35519;BME280;21627;48.216;16.482;2022-08-25T03:11:22;99894.16;;;20.33;100.00
35519;BME280;21627;48.216;16.482;2022-08-25T03:13:53;99890.63;;;20.34;100.00
35519;BME280;21627;48.216;16.482;2022-08-25T03:16:23;99887.25;;;20.30;100.00
35519;BME280;21627;48.216;16.482;2022-08-25T03:18:58;99900.09;;;20.38;100.00
35519;BME280;21627;48.216;16.482;2022-08-25T03:21:27;99889.94;;;20.29;100.00
35519;BME280;21627;48.216;16.482;2022-08-25T03:23:57;99899.34;;;20.35;100.00
35519;BME280;21627;48.216;16.482;2022-08-25T03:26:24;99895.81;;;20.36;100.00
35519;BME280;21627;48.216;16.482;2022-08-25T03:29:10;99876.81;;;20.29;100.00
35519;BME280;21627;48.216;16.482;2022-08-25T03:31:37;99888.84;;;20.35;100.00
35519;BME280;21627;48.216;16.482;2022-08-25T03:34:05;99888.72;;;20.38;100.00
35519;BME280;21627;48.216;16.482;2022-08-25T03:36:32;99894.09;;;20.35;100.00
35519;BME280;21627;48.216;16.482;2022-08-25T03:39:00;99875.09;;;20.28;100.00
35519;BME280;21627;48.216;16.482;2022-08-25T03:41:31;99873.31;;;20.28;100.00
35519;BME280;21627;48.216;16.482;2022-08-25T03:44:00;99888.84;;;20.35;100.00
35519;BME280;21627;48.216;16.482;2022-08-25T03:46:39;99887.06;;;20.35;100.00
35519;BME280;21627;48.216;16.482;2022-08-25T03:49:11;99882.91;;;20.29;100.00
35519;BME280;21627;48.216;16.482;2022-08-25T03:51:49;99885.38;;;20.34;100.00
35519;BME280;21627;48.216;16.482;2022-08-25T03:54:23;99875.09;;;20.28;100.00
35519;BME280;21627;48.216;16.482;2022-08-25T03:56:52;99882.00;;;20.30;100.00
35519;BME280;21627;48.216;16.482;2022-08-25T03:59:19;99888.91;;;20.33;100.00
35519;BME280;21627;48.216;16.482;2022-08-25T04:01:48;99881.09;;;20.31;100.00
35519;BME280;21627;48.216;16.482;2022-08-25T04:04:20;99887.19;;;20.32;100.00
35519;BME280;21627;48.216;16.482;2022-08-25T04:06:47;99876.97;;;20.24;100.00
35519;BME280;21627;48.216;16.482;2022-08-25T04:09:15;99883.75;;;20.30;100.00
35519;BME280;21627;48.216;16.482;2022-08-25T04:11:45;99874.41;;;20.23;100.00
35519;BME280;21627;48.216;16.482;2022-08-25T04:14:18;99892.56;;;20.29;100.00
35519;BME280;21627;48.216;16.482;2022-08-25T04:16:45;99872.75;;;20.20;100.00
35519;BME280;21627;48.216;16.482;2022-08-25T04:19:13;99884.78;;;20.26;100.00
35519;BME280;21627;48.216;16.482;2022-08-25T04:21:41;99882.13;;;20.27;100.00
35519;BME280;21627;48.216;16.482;2022-08-25T04:24:10;99887.31;;;20.29;100.00
35519;BME280;21627;48.216;16.482;2022-08-25T04:26:45;99894.28;;;20.30;100.00
35519;BME280;21627;48.216;16.482;2022-08-25T04:29:18;99884.78;;;20.26;100.00
35519;BME280;21627;48.216;16.482;2022-08-25T04:31:50;99888.28;;;20.26;100.00
35519;BME280;21627;48.216;16.482;2022-08-25T04:34:21;99890.66;;;20.32;100.00
35519;BME280;21627;48.216;16.482;2022-08-25T04:37:00;99880.41;;;20.26;100.00
35519;BME280;21627;48.216;16.482;2022-08-25T04:39:28;99889.69;;;20.35;100.00
35519;BME280;21627;48.216;16.482;2022-08-25T04:41:56;99890.53;;;20.36;100.00
35519;BME280;21627;48.216;16.482;2022-08-25T04:44:23;99886.19;;;20.36;100.00
35519;BME280;21627;48.216;16.482;2022-08-25T04:46:51;99887.75;;;20.40;100.00
35519;BME280;21627;48.216;16.482;2022-08-25T04:49:18;99892.88;;;20.43;100.00
35519;BME280;21627;48.216;16.482;2022-08-25T04:51:45;99888.44;;;20.45;100.00
35519;BME280;21627;48.216;16.482;2022-08-25T04:54:14;99894.34;;;20.50;100.00
35519;BME280;21627;48.216;16.482;2022-08-25T04:56:51;99892.44;;;20.56;100.00
35519;BME280;21627;48.216;16.482;2022-08-25T04:59:24;99883.59;;;20.58;100.00
35519;BME280;21627;48.216;16.482;2022-08-25T05:01:59;99877.31;;;20.62;100.00
35519;BME280;21627;48.216;16.482;2022-08-25T05:04:30;99889.16;;;20.72;100.00
35519;BME280;21627;48.216;16.482;2022-08-25T05:06:58;99876.03;;;20.72;100.00
35519;BME280;21627;48.216;16.482;2022-08-25T05:09:27;99890.63;;;20.80;100.00
35519;BME280;21627;48.216;16.482;2022-08-25T05:11:58;99885.25;;;20.83;100.00
35519;BME280;21627;48.216;16.482;2022-08-25T05:14:25;99888.69;;;20.85;100.00
35519;BME280;21627;48.216;16.482;2022-08-25T05:16:55;99892.09;;;20.87;100.00
35519;BME280;21627;48.216;16.482;2022-08-25T05:19:23;99880.84;;;20.83;100.00
35519;BME280;21627;48.216;16.482;2022-08-25T05:21:51;99889.41;;;20.88;100.00
35519;BME280;21627;48.216;16.482;2022-08-25T05:24:20;99884.28;;;20.85;100.00
35519;BME280;21627;48.216;16.482;2022-08-25T05:26:48;99877.31;;;20.84;100.00
35519;BME280;21627;48.216;16.482;2022-08-25T05:29:15;99888.53;;;20.88;100.00
35519;BME280;21627;48.216;16.482;2022-08-25T05:31:46;99884.22;;;20.87;100.00
35519;BME280;21627;48.216;16.482;2022-08-25T05:34:18;99884.13;;;20.88;100.00
35519;BME280;21627;48.216;16.482;2022-08-25T05:36:47;99889.41;;;20.88;100.00
35519;BME280;21627;48.216;16.482;2022-08-25T05:39:15;99893.81;;;20.88;100.00
35519;BME280;21627;48.216;16.482;2022-08-25T05:41:42;99886.91;;;20.85;100.00
35519;BME280;21627;48.216;16.482;2022-08-25T05:44:10;99897.38;;;20.87;100.00
35519;BME280;21627;48.216;16.482;2022-08-25T05:46:38;99904.31;;;20.88;100.00
35519;BME280;21627;48.216;16.482;2022-08-25T05:49:05;99891.44;;;20.82;100.00
35519;BME280;21627;48.216;16.482;2022-08-25T05:51:33;99895.59;;;20.87;100.00
35519;BME280;21627;48.216;16.482;2022-08-25T05:54:00;99896.38;;;20.89;100.00
35519;BME280;21627;48.216;16.482;2022-08-25T05:56:27;99894.53;;;20.91;100.00
35519;BME280;21627;48.216;16.482;2022-08-25T05:58:54;99900.53;;;20.95;100.00
35519;BME280;21627;48.216;16.482;2022-08-25T06:01:27;99903.16;;;20.95;100.00
35519;BME280;21627;48.216;16.482;2022-08-25T06:04:15;99898.81;;;20.94;100.00
35519;BME280;21627;48.216;16.482;2022-08-25T06:06:47;99905.66;;;20.98;100.00
35519;BME280;21627;48.216;16.482;2022-08-25T06:09:14;99902.91;;;21.01;100.00
35519;BME280;21627;48.216;16.482;2022-08-25T06:11:42;99902.91;;;21.01;100.00
35519;BME280;21627;48.216;16.482;2022-08-25T06:14:13;99912.44;;;21.04;100.00
35519;BME280;21627;48.216;16.482;2022-08-25T06:16:41;99907.00;;;21.08;100.00
35519;BME280;21627;48.216;16.482;2022-08-25T06:19:09;99903.38;;;21.11;100.00
35519;BME280;21627;48.216;16.482;2022-08-25T06:21:37;99902.66;;;21.07;100.00
35519;BME280;21627;48.216;16.482;2022-08-25T06:24:11;99900.63;;;21.14;100.00
35519;BME280;21627;48.216;16.482;2022-08-25T06:26:42;99894.59;;;21.12;100.00
35519;BME280;21627;48.216;16.482;2022-08-25T06:29:11;99909.31;;;21.16;100.00
35519;BME280;21627;48.216;16.482;2022-08-25T06:31:40;99904.97;;;21.15;100.00
35519;BME280;21627;48.216;16.482;2022-08-25T06:34:09;99899.78;;;21.13;100.00
35519;BME280;21627;48.216;16.482;2022-08-25T06:36:37;99892.88;;;21.11;100.00
35519;BME280;21627;48.216;16.482;2022-08-25T06:39:10;99891.75;;;21.16;100.00
35519;BME280;21627;48.216;16.482;2022-08-25T06:41:38;99908.09;;;21.25;100.00
35519;BME280;21627;48.216;16.482;2022-08-25T06:44:05;99903.81;;;21.22;100.00
35519;BME280;21627;48.216;16.482;2022-08-25T06:46:36;99902.16;;;21.20;100.00
35519;BME280;21627;48.216;16.482;2022-08-25T06:49:05;99899.44;;;21.21;100.00
35519;BME280;21627;48.216;16.482;2022-08-25T06:51:32;99900.25;;;21.23;100.00
35519;BME280;21627;48.216;16.482;2022-08-25T06:54:06;99903.59;;;21.27;100.00
35519;BME280;21627;48.216;16.482;2022-08-25T06:56:41;99923.47;;;21.34;100.00
35519;BME280;21627;48.216;16.482;2022-08-25T06:59:09;99916.50;;;21.33;100.00
35519;BME280;21627;48.216;16.482;2022-08-25T07:01:37;99922.63;;;21.33;100.00
35519;BME280;21627;48.216;16.482;2022-08-25T07:04:05;99919.94;;;21.35;100.00
35519;BME280;21627;48.216;16.482;2022-08-25T07:06:40;99918.94;;;21.37;100.00
35519;BME280;21627;48.216;16.482;2022-08-25T07:09:10;99912.78;;;21.38;100.00
35519;BME280;21627;48.216;16.482;2022-08-25T07:11:40;99913.69;;;21.37;100.00
35519;BME280;21627;48.216;16.482;2022-08-25T07:14:09;99915.19;;;21.45;100.00
35519;BME280;21627;48.216;16.482;2022-08-25T07:16:39;99920.13;;;21.52;100.00
35519;BME280;21627;48.216;16.482;2022-08-25T07:19:20;99917.22;;;21.58;100.00
35519;BME280;21627;48.216;16.482;2022-08-25T07:21:50;99917.16;;;21.60;100.00
35519;BME280;21627;48.216;16.482;2022-08-25T07:24:19;99926.28;;;21.72;100.00
35519;BME280;21627;48.216;16.482;2022-08-25T07:26:46;99923.25;;;21.81;100.00
35519;BME280;21627;48.216;16.482;2022-08-25T07:29:26;99923.84;;;21.88;100.00
35519;BME280;21627;48.216;16.482;2022-08-25T07:32:00;99922.88;;;21.90;100.00
35519;BME280;21627;48.216;16.482;2022-08-25T07:34:28;99931.53;;;21.92;100.00
35519;BME280;21627;48.216;16.482;2022-08-25T07:37:20;99921.22;;;21.88;100.00
35519;BME280;21627;48.216;16.482;2022-08-25T07:40:19;99932.13;;;21.99;100.00
35519;BME280;21627;48.216;16.482;2022-08-25T07:42:51;99940.66;;;22.04;100.00
35519;BME280;21627;48.216;16.482;2022-08-25T07:45:21;99931.78;;;22.07;100.00
35519;BME280;21627;48.216;16.482;2022-08-25T07:48:10;99938.63;;;22.11;100.00
35519;BME280;21627;48.216;16.482;2022-08-25T07:50:44;99934.91;;;22.15;100.00
35519;BME280;21627;48.216;16.482;2022-08-25T07:53:14;99935.66;;;22.18;100.00
35519;BME280;21627;48.216;16.482;2022-08-25T07:55:42;99920.69;;;22.19;100.00
35519;BME280;21627;48.216;16.482;2022-08-25T07:58:14;99931.72;;;22.29;100.00
35519;BME280;21627;48.216;16.482;2022-08-25T08:00:41;99926.44;;;22.29;100.00
35519;BME280;21627;48.216;16.482;2022-08-25T08:03:12;99915.25;;;22.23;100.00
35519;BME280;21627;48.216;16.482;2022-08-25T08:06:00;99928.66;;;22.38;100.00
35519;BME280;21627;48.216;16.482;2022-08-25T08:08:31;99925.78;;;22.42;100.00
35519;BME280;21627;48.216;16.482;2022-08-25T08:10:58;99926.38;;;22.49;100.00
35519;BME280;21627;48.216;16.482;2022-08-25T08:13:32;99921.03;;;22.51;100.00
35519;BME280;21627;48.216;16.482;2022-08-25T08:16:12;99928.44;;;22.61;100.00
35519;BME280;21627;48.216;16.482;2022-08-25T08:18:41;99935.97;;;22.69;100.00
35519;BME280;21627;48.216;16.482;2022-08-25T08:21:25;99935.63;;;22.77;100.00
35519;BME280;21627;48.216;16.482;2022-08-25T08:23:58;99935.81;;;22.91;100.00
35519;BME280;21627;48.216;16.482;2022-08-25T08:26:27;99925.34;;;22.89;100.00
35519;BME280;21627;48.216;16.482;2022-08-25T08:29:14;99921.00;;;22.88;100.00
35519;BME280;21627;48.216;16.482;2022-08-25T08:31:42;99924.94;;;22.99;100.00
35519;BME280;21627;48.216;16.482;2022-08-25T08:34:15;99931.06;;;22.99;100.00
35519;BME280;21627;48.216;16.482;2022-08-25T08:36:46;99931.00;;;23.01;100.00
35519;BME280;21627;48.216;16.482;2022-08-25T08:39:13;99935.50;;;22.99;100.00
35519;BME280;21627;48.216;16.482;2022-08-25T08:53:43;99939.91;;;22.98;100.00
35519;BME280;21627;48.216;16.482;2022-08-25T08:56:21;99936.47;;;22.96;100.00
35519;BME280;21627;48.216;16.482;2022-08-25T08:59:08;99925.06;;;22.96;100.00
35519;BME280;21627;48.216;16.482;2022-08-25T09:01:56;99922.94;;;23.04;100.00
35519;BME280;21627;48.216;16.482;2022-08-25T09:04:54;99931.41;;;23.28;100.00
35519;BME280;21627;48.216;16.482;2022-08-25T09:07:49;99931.50;;;23.44;100.00
35519;BME280;21627;48.216;16.482;2022-08-25T09:10:23;99918.69;;;23.53;100.00
35519;BME280;21627;48.216;16.482;2022-08-25T09:13:07;99926.59;;;23.71;100.00
35519;BME280;21627;48.216;16.482;2022-08-25T09:16:04;99922.84;;;23.77;100.00
35519;BME280;21627;48.216;16.482;2022-08-25T09:20:07;99921.41;;;23.87;100.00
35519;BME280;21627;48.216;16.482;2022-08-25T09:25:44;99914.75;;;24.13;100.00
35519;BME280;21627;48.216;16.482;2022-08-25T09:31:12;99910.59;;;24.40;98.52
35519;BME280;21627;48.216;16.482;2022-08-25T09:33:45;99904.69;;;24.53;99.58
35519;BME280;21627;48.216;16.482;2022-08-25T09:36:13;99892.84;;;24.60;100.00
35519;BME280;21627;48.216;16.482;2022-08-25T09:38:40;99882.75;;;24.67;96.32
35519;BME280;21627;48.216;16.482;2022-08-25T09:41:17;99880.63;;;24.73;94.07
35519;BME280;21627;48.216;16.482;2022-08-25T09:44:04;99872.28;;;24.65;94.62
35519;BME280;21627;48.216;16.482;2022-08-25T09:47:04;99880.44;;;24.76;93.77
35519;BME280;21627;48.216;16.482;2022-08-25T09:49:59;99881.56;;;24.72;95.10
35519;BME280;21627;48.216;16.482;2022-08-25T09:52:42;99873.53;;;24.90;91.57
35519;BME280;21627;48.216;16.482;2022-08-25T09:57:47;99866.13;;;24.80;89.80
35519;BME280;21627;48.216;16.482;2022-08-25T10:00:31;99865.97;;;24.68;92.52
35519;BME280;21627;48.216;16.482;2022-08-25T10:03:20;99871.16;;;24.69;94.57
35519;BME280;21627;48.216;16.482;2022-08-25T10:06:07;99864.59;;;24.60;95.35
35519;BME280;21627;48.216;16.482;2022-08-25T10:11:12;99864.84;;;24.56;94.96
35519;BME280;21627;48.216;16.482;2022-08-25T10:13:48;99854.28;;;24.56;93.25
35519;BME280;21627;48.216;16.482;2022-08-25T10:16:23;99876.13;;;24.59;92.91
35519;BME280;21627;48.216;16.482;2022-08-25T10:19:11;99870.84;;;24.59;94.20
35519;BME280;21627;48.216;16.482;2022-08-25T10:21:41;99859.50;;;24.57;92.06
35519;BME280;21627;48.216;16.482;2022-08-25T10:24:11;99865.63;;;24.58;92.86
35519;BME280;21627;48.216;16.482;2022-08-25T10:26:57;99857.44;;;24.63;93.89
35519;BME280;21627;48.216;16.482;2022-08-25T10:30:29;99864.72;;;24.89;92.50
35519;BME280;21627;48.216;16.482;2022-08-25T10:36:21;99858.84;;;25.30;87.28
35519;BME280;21627;48.216;16.482;2022-08-25T10:39:00;99850.25;;;25.41;88.14
35519;BME280;21627;48.216;16.482;2022-08-25T10:41:58;99835.22;;;25.41;86.11
35519;BME280;21627;48.216;16.482;2022-08-25T10:45:19;99848.38;;;25.57;85.09
35519;BME280;21627;48.216;16.482;2022-08-25T10:51:24;99846.53;;;25.74;83.09
35519;BME280;21627;48.216;16.482;2022-08-25T10:56:53;99833.34;;;25.72;82.61
35519;BME280;21627;48.216;16.482;2022-08-25T11:00:33;99843.38;;;25.67;82.57
35519;BME280;21627;48.216;16.482;2022-08-25T11:06:00;99834.09;;;25.60;83.15
35519;BME280;21627;48.216;16.482;2022-08-25T11:08:50;99832.59;;;25.56;79.50
35519;BME280;21627;48.216;16.482;2022-08-25T11:11:45;99827.88;;;25.61;81.30
35519;BME280;21627;48.216;16.482;2022-08-25T11:19:43;99822.09;;;25.54;79.29
35519;BME280;21627;48.216;16.482;2022-08-25T11:22:39;99816.44;;;25.75;78.19
35519;BME280;21627;48.216;16.482;2022-08-25T11:25:25;99812.69;;;25.93;75.45
35519;BME280;21627;48.216;16.482;2022-08-25T11:28:10;99809.88;;;26.23;77.79
35519;BME280;21627;48.216;16.482;2022-08-25T11:30:40;99800.19;;;26.37;76.06
35519;BME280;21627;48.216;16.482;2022-08-25T11:33:16;99797.59;;;26.49;76.58
35519;BME280;21627;48.216;16.482;2022-08-25T11:36:04;99792.44;;;26.61;75.22
35519;BME280;21627;48.216;16.482;2022-08-25T11:48:59;99788.75;;;26.63;73.50
35519;BME280;21627;48.216;16.482;2022-08-25T11:51:43;99785.38;;;26.47;74.32
35519;BME280;21627;48.216;16.482;2022-08-25T11:54:23;99782.94;;;26.44;73.46
35519;BME280;21627;48.216;16.482;2022-08-25T11:57:18;99787.81;;;26.64;72.50
35519;BME280;21627;48.216;16.482;2022-08-25T12:02:40;99786.88;;;27.31;65.96
35519;BME280;21627;48.216;16.482;2022-08-25T12:11:55;99781.66;;;27.68;67.81
35519;BME280;21627;48.216;16.482;2022-08-25T12:27:47;99781.09;;;28.01;63.30
35519;BME280;21627;48.216;16.482;2022-08-25T12:30:37;99776.88;;;28.22;64.95
35519;BME280;21627;48.216;16.482;2022-08-25T12:36:01;99777.53;;;28.50;62.19
35519;BME280;21627;48.216;16.482;2022-08-25T12:41:15;99755.19;;;28.16;58.39
35519;BME280;21627;48.216;16.482;2022-08-25T12:43:47;99771.13;;;28.40;57.88
35519;BME280;21627;48.216;16.482;2022-08-25T12:49:09;99773.31;;;28.83;56.72
35519;BME280;21627;48.216;16.482;2022-08-25T13:00:26;99762.31;;;29.34;57.21
35519;BME280;21627;48.216;16.482;2022-08-25T13:03:29;99738.09;;;29.48;56.87
35519;BME280;21627;48.216;16.482;2022-08-25T13:10:01;99747.53;;;29.86;54.51
35519;BME280;21627;48.216;16.482;2022-08-25T13:13:03;99744.22;;;30.05;54.68
35519;BME280;21627;48.216;16.482;2022-08-25T13:15:46;99728.44;;;30.13;54.19
35519;BME280;21627;48.216;16.482;2022-08-25T13:18:31;99738.34;;;30.23;53.05
35519;BME280;21627;48.216;16.482;2022-08-25T13:21:37;99739.41;;;30.43;53.77
35519;BME280;21627;48.216;16.482;2022-08-25T13:24:10;99738.66;;;30.52;52.43
35519;BME280;21627;48.216;16.482;2022-08-25T13:26:41;99744.38;;;30.47;53.54
35519;BME280;21627;48.216;16.482;2022-08-25T13:29:32;99739.25;;;30.44;53.88
35519;BME280;21627;48.216;16.482;2022-08-25T13:32:12;99727.97;;;30.52;53.33
35519;BME280;21627;48.216;16.482;2022-08-25T13:34:41;99736.72;;;30.75;50.79
35519;BME280;21627;48.216;16.482;2022-08-25T13:37:15;99738.84;;;30.92;50.13
35519;BME280;21627;48.216;16.482;2022-08-25T13:40:32;99735.34;;;31.22;51.14
35519;BME280;21627;48.216;16.482;2022-08-25T13:43:08;99724.91;;;31.40;47.01
35519;BME280;21627;48.216;16.482;2022-08-25T13:45:43;99710.88;;;31.48;50.22
35519;BME280;21627;48.216;16.482;2022-08-25T13:48:13;99731.75;;;31.64;49.75
35519;BME280;21627;48.216;16.482;2022-08-25T13:50:51;99733.22;;;31.78;48.59
35519;BME280;21627;48.216;16.482;2022-08-25T13:53:31;99719.41;;;31.82;48.09
35519;BME280;21627;48.216;16.482;2022-08-25T13:56:01;99711.13;;;31.85;46.54
35519;BME280;21627;48.216;16.482;2022-08-25T13:58:33;99722.28;;;32.00;45.45
35519;BME280;21627;48.216;16.482;2022-08-25T14:01:24;99719.47;;;32.02;46.84
35519;BME280;21627;48.216;16.482;2022-08-25T14:07:23;99717.78;;;32.20;47.71
35519;BME280;21627;48.216;16.482;2022-08-25T14:10:42;99720.66;;;32.28;45.57
35519;BME280;21627;48.216;16.482;2022-08-25T14:13:29;99716.13;;;32.29;44.80
35519;BME280;21627;48.216;16.482;2022-08-25T14:16:27;99716.25;;;32.47;46.85
35519;BME280;21627;48.216;16.482;2022-08-25T14:18:58;99699.41;;;32.56;45.78
35519;BME280;21627;48.216;16.482;2022-08-25T14:21:32;99707.13;;;32.69;44.41
35519;BME280;21627;48.216;16.482;2022-08-25T14:24:01;99694.28;;;32.63;45.85
35519;BME280;21627;48.216;16.482;2022-08-25T14:26:29;99702.72;;;32.78;44.61
35519;BME280;21627;48.216;16.482;2022-08-25T14:28:59;99709.91;;;32.87;45.17
35519;BME280;21627;48.216;16.482;2022-08-25T14:31:32;99693.00;;;32.86;44.21
35519;BME280;21627;48.216;16.482;2022-08-25T14:34:04;99689.03;;;32.90;42.98
35519;BME280;21627;48.216;16.482;2022-08-25T14:36:38;99691.88;;;32.89;43.23
35519;BME280;21627;48.216;16.482;2022-08-25T14:39:05;99694.81;;;32.86;44.75
35519;BME280;21627;48.216;16.482;2022-08-25T14:41:37;99692.72;;;32.89;46.03
35519;BME280;21627;48.216;16.482;2022-08-25T14:44:08;99693.94;;;32.95;45.10
35519;BME280;21627;48.216;16.482;2022-08-25T14:46:52;99687.59;;;32.96;43.18
35519;BME280;21627;48.216;16.482;2022-08-25T14:49:30;99681.97;;;32.99;44.67
35519;BME280;21627;48.216;16.482;2022-08-25T14:52:12;99680.69;;;33.03;44.54
35519;BME280;21627;48.216;16.482;2022-08-25T14:54:42;99681.41;;;32.95;43.00
35519;BME280;21627;48.216;16.482;2022-08-25T14:57:14;99674.91;;;32.98;42.54
35519;BME280;21627;48.216;16.482;2022-08-25T14:59:45;99677.75;;;32.96;45.25
35519;BME280;21627;48.216;16.482;2022-08-25T15:02:15;99677.03;;;33.04;44.53
35519;BME280;21627;48.216;16.482;2022-08-25T15:04:57;99677.03;;;33.04;43.67